sensor_id;sensor_type;location;lat;lon;timestamp;pressure;altitude;pressure_sealevel;temperature;humidity
77778;BME280;66966;-34.746;138.604;2023-04-24T00:00:21;102741.74;;;20.74;32.77
77778;BME280;66966;-34.746;138.604;2023-04-24T00:02:46;102737.89;;;20.76;32.50
77778;BME280;66966;-34.746;138.604;2023-04-24T00:05:12;102736.16;;;21.03;32.28
77778;BME280;66966;-34.746;138.604;2023-04-24T00:07:37;102731.72;;;21.15;31.83
77778;BME280;66966;-34.746;138.604;2023-04-24T00:10:02;102728.52;;;21.34;31.40
77778;BME280;66966;-34.746;138.604;2023-04-24T00:12:28;102727.28;;;21.56;30.87
77778;BME280;66966;-34.746;138.604;2023-04-24T00:14:53;102731.09;;;21.76;30.65
77778;BME280;66966;-34.746;138.604;2023-04-24T00:17:19;102727.69;;;21.64;30.74
77778;BME280;66966;-34.746;138.604;2023-04-24T00:19:44;102723.21;;;22.08;30.57
77778;BME280;66966;-34.746;138.604;2023-04-24T00:22:09;102725.25;;;21.76;30.22
77778;BME280;66966;-34.746;138.604;2023-04-24T00:24:35;102724.61;;;22.10;30.01
77778;BME280;66966;-34.746;138.604;2023-04-24T00:27:00;102721.14;;;21.95;29.87
77778;BME280;66966;-34.746;138.604;2023-04-24T00:29:26;102717.30;;;22.09;29.87
77778;BME280;66966;-34.746;138.604;2023-04-24T00:31:50;102720.45;;;22.26;29.79
77778;BME280;66966;-34.746;138.604;2023-04-24T00:34:16;102717.90;;;22.53;29.32
77778;BME280;66966;-34.746;138.604;2023-04-24T00:36:41;102719.01;;;22.57;29.29
77778;BME280;66966;-34.746;138.604;2023-04-24T00:39:07;102721.12;;;22.77;29.18
77778;BME280;66966;-34.746;138.604;2023-04-24T00:41:33;102724.29;;;22.85;29.00
77778;BME280;66966;-34.746;138.604;2023-04-24T00:43:57;102723.30;;;23.01;28.74
77778;BME280;66966;-34.746;138.604;2023-04-24T00:46:23;102723.32;;;22.93;28.72
77778;BME280;66966;-34.746;138.604;2023-04-24T00:48:48;102721.38;;;22.83;28.55
77778;BME280;66966;-34.746;138.604;2023-04-24T00:51:13;102722.40;;;23.04;28.20
77778;BME280;66966;-34.746;138.604;2023-04-24T00:53:39;102722.76;;;23.28;28.43
77778;BME280;66966;-34.746;138.604;2023-04-24T00:56:05;102718.65;;;22.97;28.08
77778;BME280;66966;-34.746;138.604;2023-04-24T00:58:29;102712.09;;;23.35;28.11
77778;BME280;66966;-34.746;138.604;2023-04-24T01:00:55;102708.04;;;23.75;27.75
77778;BME280;66966;-34.746;138.604;2023-04-24T01:03:20;102704.75;;;23.41;27.83
77778;BME280;66966;-34.746;138.604;2023-04-24T01:05:46;102708.59;;;23.55;27.61
77778;BME280;66966;-34.746;138.604;2023-04-24T01:08:11;102700.75;;;23.96;27.02
77778;BME280;66966;-34.746;138.604;2023-04-24T01:10:37;102696.96;;;24.03;27.24
77778;BME280;66966;-34.746;138.604;2023-04-24T01:13:01;102693.83;;;23.68;27.04
77778;BME280;66966;-34.746;138.604;2023-04-24T01:15:26;102693.66;;;23.98;26.82
77778;BME280;66966;-34.746;138.604;2023-04-24T01:17:52;102695.92;;;24.09;26.74
77778;BME280;66966;-34.746;138.604;2023-04-24T01:20:18;102690.87;;;23.96;26.66
77778;BME280;66966;-34.746;138.604;2023-04-24T01:22:43;102685.96;;;24.13;26.62
77778;BME280;66966;-34.746;138.604;2023-04-24T01:25:08;102682.01;;;24.29;26.58
77778;BME280;66966;-34.746;138.604;2023-04-24T01:27:33;102679.49;;;24.48;26.30
77778;BME280;66966;-34.746;138.604;2023-04-24T01:29:59;102677.12;;;24.67;26.28
77778;BME280;66966;-34.746;138.604;2023-04-24T01:32:24;102675.23;;;24.84;26.14
77778;BME280;66966;-34.746;138.604;2023-04-24T01:34:49;102671.51;;;25.00;25.73
77778;BME280;66966;-34.746;138.604;2023-04-24T01:37:14;102666.63;;;25.12;25.54
77778;BME280;66966;-34.746;138.604;2023-04-24T01:39:39;102665.07;;;25.33;25.27
77778;BME280;66966;-34.746;138.604;2023-04-24T01:42:06;102658.50;;;25.00;25.16
77778;BME280;66966;-34.746;138.604;2023-04-24T01:44:30;102653.21;;;25.34;25.00
77778;BME280;66966;-34.746;138.604;2023-04-24T01:46:55;102649.42;;;25.50;24.77
77778;BME280;66966;-34.746;138.604;2023-04-24T01:49:20;102639.53;;;25.47;24.64
77778;BME280;66966;-34.746;138.604;2023-04-24T01:51:45;102639.94;;;25.81;24.24
77778;BME280;66966;-34.746;138.604;2023-04-24T01:54:11;102639.45;;;25.80;24.53
77778;BME280;66966;-34.746;138.604;2023-04-24T01:56:36;102635.79;;;26.13;24.60
77778;BME280;66966;-34.746;138.604;2023-04-24T01:59:02;102632.25;;;26.13;23.94
77778;BME280;66966;-34.746;138.604;2023-04-24T02:01:26;102626.52;;;26.34;23.75
77778;BME280;66966;-34.746;138.604;2023-04-24T02:03:52;102620.34;;;26.34;23.47
77778;BME280;66966;-34.746;138.604;2023-04-24T02:06:17;102624.90;;;26.63;23.18
77778;BME280;66966;-34.746;138.604;2023-04-24T02:08:42;102620.68;;;26.31;23.07
77778;BME280;66966;-34.746;138.604;2023-04-24T02:11:08;102618.61;;;26.38;22.90
77778;BME280;66966;-34.746;138.604;2023-04-24T02:13:32;102618.01;;;26.56;22.92
77778;BME280;66966;-34.746;138.604;2023-04-24T02:15:59;102616.21;;;26.89;22.56
77778;BME280;66966;-34.746;138.604;2023-04-24T02:18:23;102613.15;;;26.70;22.27
77778;BME280;66966;-34.746;138.604;2023-04-24T02:20:48;102610.28;;;26.88;22.44
77778;BME280;66966;-34.746;138.604;2023-04-24T02:23:13;102600.87;;;26.90;22.21
77778;BME280;66966;-34.746;138.604;2023-04-24T02:25:38;102597.02;;;26.96;22.25
77778;BME280;66966;-34.746;138.604;2023-04-24T02:28:03;102592.81;;;26.59;22.12
77778;BME280;66966;-34.746;138.604;2023-04-24T02:30:29;102582.60;;;27.32;22.03
77778;BME280;66966;-34.746;138.604;2023-04-24T02:32:54;102572.70;;;27.45;21.77
77778;BME280;66966;-34.746;138.604;2023-04-24T02:35:19;102567.51;;;27.51;21.82
77778;BME280;66966;-34.746;138.604;2023-04-24T02:37:44;102563.75;;;27.32;21.60
77778;BME280;66966;-34.746;138.604;2023-04-24T02:40:10;102560.33;;;27.44;21.75
77778;BME280;66966;-34.746;138.604;2023-04-24T02:42:35;102563.45;;;27.51;21.54
77778;BME280;66966;-34.746;138.604;2023-04-24T02:45:00;102558.58;;;27.58;20.94
77778;BME280;66966;-34.746;138.604;2023-04-24T02:47:25;102556.00;;;27.66;21.30
77778;BME280;66966;-34.746;138.604;2023-04-24T02:49:50;102552.15;;;27.79;21.32
77778;BME280;66966;-34.746;138.604;2023-04-24T02:52:15;102544.79;;;27.64;21.29
77778;BME280;66966;-34.746;138.604;2023-04-24T02:54:41;102541.04;;;27.99;20.61
77778;BME280;66966;-34.746;138.604;2023-04-24T02:57:05;102529.89;;;27.82;19.69
77778;BME280;66966;-34.746;138.604;2023-04-24T02:59:31;102525.08;;;27.73;19.76
77778;BME280;66966;-34.746;138.604;2023-04-24T03:01:56;102517.83;;;28.09;20.12
77778;BME280;66966;-34.746;138.604;2023-04-24T03:04:21;102512.77;;;27.94;19.48
77778;BME280;66966;-34.746;138.604;2023-04-24T03:06:47;102508.32;;;28.09;20.30
77778;BME280;66966;-34.746;138.604;2023-04-24T03:09:11;102501.05;;;28.29;19.93
77778;BME280;66966;-34.746;138.604;2023-04-24T03:11:36;102493.97;;;28.28;19.34
77778;BME280;66966;-34.746;138.604;2023-04-24T03:14:01;102487.33;;;28.17;19.45
77778;BME280;66966;-34.746;138.604;2023-04-24T03:16:27;102477.58;;;28.10;19.38
77778;BME280;66966;-34.746;138.604;2023-04-24T03:18:52;102473.12;;;28.11;19.23
77778;BME280;66966;-34.746;138.604;2023-04-24T03:21:17;102470.36;;;28.22;19.60
77778;BME280;66966;-34.746;138.604;2023-04-24T03:23:42;102465.88;;;28.29;19.37
77778;BME280;66966;-34.746;138.604;2023-04-24T03:26:07;102461.50;;;28.41;19.21
77778;BME280;66966;-34.746;138.604;2023-04-24T03:28:32;102447.94;;;28.24;19.27
77778;BME280;66966;-34.746;138.604;2023-04-24T03:30:58;102443.67;;;28.58;18.96
77778;BME280;66966;-34.746;138.604;2023-04-24T03:33:23;102440.51;;;28.46;18.86
77778;BME280;66966;-34.746;138.604;2023-04-24T03:35:48;102435.37;;;28.46;18.57
77778;BME280;66966;-34.746;138.604;2023-04-24T03:38:13;102430.88;;;28.37;18.56
77778;BME280;66966;-34.746;138.604;2023-04-24T03:40:38;102423.08;;;28.58;19.58
77778;BME280;66966;-34.746;138.604;2023-04-24T03:43:04;102420.84;;;28.82;19.78
77778;BME280;66966;-34.746;138.604;2023-04-24T03:45:28;102421.77;;;28.99;19.50
77778;BME280;66966;-34.746;138.604;2023-04-24T03:47:53;102418.59;;;28.94;19.47
77778;BME280;66966;-34.746;138.604;2023-04-24T03:50:19;102411.58;;;28.79;19.33
77778;BME280;66966;-34.746;138.604;2023-04-24T03:52:44;102404.95;;;28.91;19.33
77778;BME280;66966;-34.746;138.604;2023-04-24T03:55:10;102402.51;;;28.53;19.43
77778;BME280;66966;-34.746;138.604;2023-04-24T03:57:34;102394.50;;;28.77;18.99
77778;BME280;66966;-34.746;138.604;2023-04-24T03:59:59;102387.85;;;28.54;18.96
77778;BME280;66966;-34.746;138.604;2023-04-24T04:02:24;102386.39;;;28.57;18.72
77778;BME280;66966;-34.746;138.604;2023-04-24T04:04:49;102385.79;;;28.67;19.05
77778;BME280;66966;-34.746;138.604;2023-04-24T04:07:16;102386.92;;;28.80;18.64
77778;BME280;66966;-34.746;138.604;2023-04-24T04:09:40;102381.94;;;29.42;19.49
77778;BME280;66966;-34.746;138.604;2023-04-24T04:12:05;102379.83;;;28.95;18.78
77778;BME280;66966;-34.746;138.604;2023-04-24T04:14:30;102379.28;;;29.18;18.75
77778;BME280;66966;-34.746;138.604;2023-04-24T04:16:55;102376.85;;;29.47;18.81
77778;BME280;66966;-34.746;138.604;2023-04-24T04:19:21;102375.24;;;29.24;18.37
77778;BME280;66966;-34.746;138.604;2023-04-24T04:21:45;102374.43;;;29.14;18.25
77778;BME280;66966;-34.746;138.604;2023-04-24T04:24:10;102370.83;;;29.07;18.24
77778;BME280;66966;-34.746;138.604;2023-04-24T04:26:36;102363.46;;;29.02;18.21
77778;BME280;66966;-34.746;138.604;2023-04-24T04:29:01;102360.89;;;29.01;18.58
77778;BME280;66966;-34.746;138.604;2023-04-24T04:31:26;102358.36;;;29.07;18.51
77778;BME280;66966;-34.746;138.604;2023-04-24T04:33:51;102358.85;;;28.89;18.43
77778;BME280;66966;-34.746;138.604;2023-04-24T04:36:16;102356.49;;;28.69;18.19
77778;BME280;66966;-34.746;138.604;2023-04-24T04:38:41;102354.13;;;28.87;18.33
77778;BME280;66966;-34.746;138.604;2023-04-24T04:41:06;102351.57;;;29.12;18.64
77778;BME280;66966;-34.746;138.604;2023-04-24T04:43:32;102348.88;;;28.76;18.61
77778;BME280;66966;-34.746;138.604;2023-04-24T04:45:57;102352.36;;;28.78;18.78
77778;BME280;66966;-34.746;138.604;2023-04-24T04:48:22;102342.96;;;29.23;18.92
77778;BME280;66966;-34.746;138.604;2023-04-24T04:50:47;102346.62;;;29.00;18.83
77778;BME280;66966;-34.746;138.604;2023-04-24T04:53:12;102340.33;;;28.95;18.65
77778;BME280;66966;-34.746;138.604;2023-04-24T04:55:38;102336.54;;;29.26;18.51
77778;BME280;66966;-34.746;138.604;2023-04-24T04:58:02;102333.04;;;29.22;18.52
77778;BME280;66966;-34.746;138.604;2023-04-24T05:00:27;102330.78;;;29.34;18.30
77778;BME280;66966;-34.746;138.604;2023-04-24T05:02:52;102330.12;;;29.49;18.36
77778;BME280;66966;-34.746;138.604;2023-04-24T05:05:18;102330.21;;;29.32;18.25
77778;BME280;66966;-34.746;138.604;2023-04-24T05:07:43;102334.59;;;29.35;17.92
77778;BME280;66966;-34.746;138.604;2023-04-24T05:10:09;102333.52;;;29.76;17.72
77778;BME280;66966;-34.746;138.604;2023-04-24T05:12:33;102333.91;;;29.49;17.83
77778;BME280;66966;-34.746;138.604;2023-04-24T05:14:58;102332.99;;;29.59;18.32
77778;BME280;66966;-34.746;138.604;2023-04-24T05:17:23;102331.25;;;29.38;18.08
77778;BME280;66966;-34.746;138.604;2023-04-24T05:19:48;102326.74;;;29.75;18.37
77778;BME280;66966;-34.746;138.604;2023-04-24T05:22:13;102326.35;;;29.88;17.97
77778;BME280;66966;-34.746;138.604;2023-04-24T05:24:39;102322.85;;;29.80;17.98
77778;BME280;66966;-34.746;138.604;2023-04-24T05:27:04;102325.58;;;29.68;18.02
77778;BME280;66966;-34.746;138.604;2023-04-24T05:29:28;102327.29;;;29.34;18.02
77778;BME280;66966;-34.746;138.604;2023-04-24T05:31:54;102323.56;;;29.60;18.02
77778;BME280;66966;-34.746;138.604;2023-04-24T05:34:19;102323.31;;;29.58;18.13
77778;BME280;66966;-34.746;138.604;2023-04-24T05:36:44;102326.73;;;29.55;17.76
77778;BME280;66966;-34.746;138.604;2023-04-24T05:39:09;102327.09;;;29.64;17.72
77778;BME280;66966;-34.746;138.604;2023-04-24T05:41:34;102330.21;;;29.35;17.97
77778;BME280;66966;-34.746;138.604;2023-04-24T05:43:59;102333.84;;;29.22;18.05
77778;BME280;66966;-34.746;138.604;2023-04-24T05:46:24;102330.94;;;29.27;18.37
77778;BME280;66966;-34.746;138.604;2023-04-24T05:48:49;102331.04;;;29.40;18.08
77778;BME280;66966;-34.746;138.604;2023-04-24T05:51:14;102328.20;;;29.53;18.02
77778;BME280;66966;-34.746;138.604;2023-04-24T05:53:39;102321.02;;;29.47;17.53
77778;BME280;66966;-34.746;138.604;2023-04-24T05:56:05;102321.26;;;28.85;17.72
77778;BME280;66966;-34.746;138.604;2023-04-24T05:58:29;102321.38;;;29.78;17.80
77778;BME280;66966;-34.746;138.604;2023-04-24T06:00:55;102323.20;;;29.92;17.45
77778;BME280;66966;-34.746;138.604;2023-04-24T06:03:20;102325.86;;;30.05;17.35
77778;BME280;66966;-34.746;138.604;2023-04-24T06:05:45;102325.46;;;30.00;17.18
77778;BME280;66966;-34.746;138.604;2023-04-24T06:08:11;102325.68;;;29.81;17.47
77778;BME280;66966;-34.746;138.604;2023-04-24T06:10:35;102328.68;;;29.85;17.28
77778;BME280;66966;-34.746;138.604;2023-04-24T06:13:00;102326.18;;;29.85;17.35
77778;BME280;66966;-34.746;138.604;2023-04-24T06:15:25;102327.33;;;30.00;17.42
77778;BME280;66966;-34.746;138.604;2023-04-24T06:17:50;102332.38;;;29.95;17.48
77778;BME280;66966;-34.746;138.604;2023-04-24T06:20:16;102335.35;;;29.67;17.28
77778;BME280;66966;-34.746;138.604;2023-04-24T06:22:40;102336.44;;;29.67;17.23
77778;BME280;66966;-34.746;138.604;2023-04-24T06:25:06;102337.38;;;29.46;17.60
77778;BME280;66966;-34.746;138.604;2023-04-24T06:27:30;102334.55;;;29.56;17.69
77778;BME280;66966;-34.746;138.604;2023-04-24T06:29:56;102330.36;;;29.68;17.46
77778;BME280;66966;-34.746;138.604;2023-04-24T06:32:21;102325.14;;;29.70;17.20
77778;BME280;66966;-34.746;138.604;2023-04-24T06:34:46;102317.47;;;29.73;17.31
77778;BME280;66966;-34.746;138.604;2023-04-24T06:37:11;102318.56;;;30.13;17.61
77778;BME280;66966;-34.746;138.604;2023-04-24T06:39:36;102314.94;;;30.04;18.15
77778;BME280;66966;-34.746;138.604;2023-04-24T06:42:01;102312.14;;;29.74;18.01
77778;BME280;66966;-34.746;138.604;2023-04-24T06:44:26;102311.07;;;29.74;17.83
77778;BME280;66966;-34.746;138.604;2023-04-24T06:46:51;102310.26;;;30.06;18.05
77778;BME280;66966;-34.746;138.604;2023-04-24T06:49:16;102312.58;;;29.85;18.13
77778;BME280;66966;-34.746;138.604;2023-04-24T06:51:41;102306.89;;;30.17;18.24
77778;BME280;66966;-34.746;138.604;2023-04-24T06:54:06;102306.92;;;29.94;18.13
77778;BME280;66966;-34.746;138.604;2023-04-24T06:56:32;102306.10;;;30.13;18.08
77778;BME280;66966;-34.746;138.604;2023-04-24T06:58:57;102305.52;;;29.83;17.91
77778;BME280;66966;-34.746;138.604;2023-04-24T07:01:22;102308.28;;;29.94;18.26
77778;BME280;66966;-34.746;138.604;2023-04-24T07:03:47;102308.83;;;29.89;18.25
77778;BME280;66966;-34.746;138.604;2023-04-24T07:06:12;102310.22;;;29.62;18.55
77778;BME280;66966;-34.746;138.604;2023-04-24T07:08:37;102305.36;;;29.74;18.33
77778;BME280;66966;-34.746;138.604;2023-04-24T07:11:02;102305.51;;;29.58;17.78
77778;BME280;66966;-34.746;138.604;2023-04-24T07:13:27;102304.08;;;29.46;18.04
77778;BME280;66966;-34.746;138.604;2023-04-24T07:15:53;102305.87;;;29.61;17.90
77778;BME280;66966;-34.746;138.604;2023-04-24T07:18:17;102309.03;;;29.46;18.08
77778;BME280;66966;-34.746;138.604;2023-04-24T07:20:43;102312.31;;;29.32;18.23
77778;BME280;66966;-34.746;138.604;2023-04-24T07:23:07;102312.96;;;29.15;18.42
77778;BME280;66966;-34.746;138.604;2023-04-24T07:25:32;102313.28;;;29.02;18.84
77778;BME280;66966;-34.746;138.604;2023-04-24T07:27:58;102310.08;;;28.89;18.91
77778;BME280;66966;-34.746;138.604;2023-04-24T07:30:23;102309.85;;;28.96;18.95
77778;BME280;66966;-34.746;138.604;2023-04-24T07:32:48;102309.41;;;28.82;19.28
77778;BME280;66966;-34.746;138.604;2023-04-24T07:35:13;102308.45;;;28.89;19.25
77778;BME280;66966;-34.746;138.604;2023-04-24T07:37:38;102310.76;;;28.49;19.44
77778;BME280;66966;-34.746;138.604;2023-04-24T07:40:04;102309.02;;;28.07;19.46
77778;BME280;66966;-34.746;138.604;2023-04-24T07:42:29;102311.19;;;28.20;19.64
77778;BME280;66966;-34.746;138.604;2023-04-24T07:44:54;102308.52;;;28.31;19.68
77778;BME280;66966;-34.746;138.604;2023-04-24T07:47:19;102312.15;;;28.22;19.85
77778;BME280;66966;-34.746;138.604;2023-04-24T07:49:44;102312.76;;;28.38;19.68
77778;BME280;66966;-34.746;138.604;2023-04-24T07:52:10;102312.12;;;28.00;19.74
77778;BME280;66966;-34.746;138.604;2023-04-24T07:54:35;102311.03;;;27.92;19.60
77778;BME280;66966;-34.746;138.604;2023-04-24T07:57:00;102315.09;;;27.79;19.66
77778;BME280;66966;-34.746;138.604;2023-04-24T07:59:25;102317.62;;;27.68;19.85
77778;BME280;66966;-34.746;138.604;2023-04-24T08:01:50;102322.39;;;27.77;20.34
77778;BME280;66966;-34.746;138.604;2023-04-24T08:04:16;102320.65;;;27.37;20.84
77778;BME280;66966;-34.746;138.604;2023-04-24T08:06:41;102319.68;;;27.18;20.72
77778;BME280;66966;-34.746;138.604;2023-04-24T08:09:06;102321.58;;;27.26;20.87
77778;BME280;66966;-34.746;138.604;2023-04-24T08:11:31;102321.66;;;27.35;20.92
77778;BME280;66966;-34.746;138.604;2023-04-24T08:13:56;102321.84;;;27.16;20.57
77778;BME280;66966;-34.746;138.604;2023-04-24T08:16:21;102322.39;;;27.00;20.77
77778;BME280;66966;-34.746;138.604;2023-04-24T08:18:47;102325.43;;;26.92;20.67
77778;BME280;66966;-34.746;138.604;2023-04-24T08:21:13;102330.09;;;26.60;20.65
77778;BME280;66966;-34.746;138.604;2023-04-24T08:23:38;102329.56;;;26.78;20.54
77778;BME280;66966;-34.746;138.604;2023-04-24T08:26:03;102331.73;;;26.44;20.81
77778;BME280;66966;-34.746;138.604;2023-04-24T08:28:28;102334.28;;;26.84;20.78
77778;BME280;66966;-34.746;138.604;2023-04-24T09:45:56;102402.85;;;25.08;22.22
77778;BME280;66966;-34.746;138.604;2023-04-24T09:48:14;102404.31;;;25.48;22.46
77778;BME280;66966;-34.746;138.604;2023-04-24T09:50:40;102407.08;;;25.11;23.22
77778;BME280;66966;-34.746;138.604;2023-04-24T09:53:06;102408.14;;;24.48;23.80
77778;BME280;66966;-34.746;138.604;2023-04-24T09:55:31;102411.03;;;24.59;24.12
77778;BME280;66966;-34.746;138.604;2023-04-24T09:57:58;102409.84;;;24.34;24.54
77778;BME280;66966;-34.746;138.604;2023-04-24T10:00:25;102408.86;;;24.43;24.32
77778;BME280;66966;-34.746;138.604;2023-04-24T10:02:51;102410.38;;;24.05;24.47
77778;BME280;66966;-34.746;138.604;2023-04-24T10:05:12;102408.84;;;23.93;24.83
77778;BME280;66966;-34.746;138.604;2023-04-24T10:07:38;102408.75;;;24.34;24.54
77778;BME280;66966;-34.746;138.604;2023-04-24T10:10:03;102405.38;;;24.03;24.53
77778;BME280;66966;-34.746;138.604;2023-04-24T10:12:28;102404.46;;;23.77;24.29
77778;BME280;66966;-34.746;138.604;2023-04-24T10:14:53;102405.99;;;24.20;24.11
77778;BME280;66966;-34.746;138.604;2023-04-24T10:17:18;102409.67;;;23.89;24.55
77778;BME280;66966;-34.746;138.604;2023-04-24T10:19:44;102411.93;;;23.64;24.66
77778;BME280;66966;-34.746;138.604;2023-04-24T10:22:10;102411.94;;;24.05;24.24
77778;BME280;66966;-34.746;138.604;2023-04-24T10:24:34;102413.95;;;23.53;24.17
77778;BME280;66966;-34.746;138.604;2023-04-24T10:26:59;102411.20;;;23.78;24.12
77778;BME280;66966;-34.746;138.604;2023-04-24T10:29:25;102407.70;;;23.79;24.02
77778;BME280;66966;-34.746;138.604;2023-04-24T10:31:50;102407.68;;;23.80;23.95
77778;BME280;66966;-34.746;138.604;2023-04-24T10:34:17;102407.55;;;24.02;23.68
77778;BME280;66966;-34.746;138.604;2023-04-24T10:36:45;102409.16;;;23.76;23.89
77778;BME280;66966;-34.746;138.604;2023-04-24T10:39:09;102406.57;;;24.00;23.82
77778;BME280;66966;-34.746;138.604;2023-04-24T10:41:32;102407.38;;;23.75;23.70
77778;BME280;66966;-34.746;138.604;2023-04-24T10:44:06;102404.35;;;23.45;24.07
77778;BME280;66966;-34.746;138.604;2023-04-24T10:46:23;102408.58;;;23.71;23.70
77778;BME280;66966;-34.746;138.604;2023-04-24T10:48:53;102408.13;;;23.50;23.74
77778;BME280;66966;-34.746;138.604;2023-04-24T10:51:14;102411.38;;;23.71;23.80
77778;BME280;66966;-34.746;138.604;2023-04-24T10:53:38;102408.28;;;23.66;23.79
77778;BME280;66966;-34.746;138.604;2023-04-24T10:56:05;102406.40;;;23.65;23.97
77778;BME280;66966;-34.746;138.604;2023-04-24T11:00:58;102406.01;;;23.32;23.90
77778;BME280;66966;-34.746;138.604;2023-04-24T11:03:26;102403.95;;;23.78;23.89
77778;BME280;66966;-34.746;138.604;2023-04-24T11:05:53;102405.44;;;23.78;24.02
77778;BME280;66966;-34.746;138.604;2023-04-24T11:08:15;102407.16;;;23.77;24.00
77778;BME280;66966;-34.746;138.604;2023-04-24T11:10:40;102407.46;;;23.74;23.97
77778;BME280;66966;-34.746;138.604;2023-04-24T11:13:03;102406.67;;;23.42;24.66
77778;BME280;66966;-34.746;138.604;2023-04-24T11:15:26;102402.39;;;23.12;24.18
77778;BME280;66966;-34.746;138.604;2023-04-24T11:17:56;102403.90;;;23.35;24.16
77778;BME280;66966;-34.746;138.604;2023-04-24T11:20:18;102402.38;;;23.54;24.26
77778;BME280;66966;-34.746;138.604;2023-04-24T11:22:42;102405.53;;;23.47;24.27
77778;BME280;66966;-34.746;138.604;2023-04-24T11:25:08;102406.47;;;23.34;24.49
77778;BME280;66966;-34.746;138.604;2023-04-24T11:30:02;102405.60;;;23.22;24.72
77778;BME280;66966;-34.746;138.604;2023-04-24T11:32:28;102405.60;;;23.18;24.78
77778;BME280;66966;-34.746;138.604;2023-04-24T11:34:51;102403.15;;;23.35;24.78
77778;BME280;66966;-34.746;138.604;2023-04-24T11:37:14;102403.05;;;22.79;25.15
77778;BME280;66966;-34.746;138.604;2023-04-24T11:39:39;102402.65;;;22.90;25.43
77778;BME280;66966;-34.746;138.604;2023-04-24T11:42:05;102400.16;;;22.78;25.42
77778;BME280;66966;-34.746;138.604;2023-04-24T11:44:30;102397.37;;;22.71;25.59
77778;BME280;66966;-34.746;138.604;2023-04-24T11:46:58;102399.86;;;22.60;25.58
77778;BME280;66966;-34.746;138.604;2023-04-24T11:49:21;102399.12;;;22.77;25.49
77778;BME280;66966;-34.746;138.604;2023-04-24T11:51:46;102395.64;;;22.71;25.61
77778;BME280;66966;-34.746;138.604;2023-04-24T11:54:12;102391.61;;;22.64;25.77
77778;BME280;66966;-34.746;138.604;2023-04-24T11:56:37;102388.41;;;22.58;25.94
77778;BME280;66966;-34.746;138.604;2023-04-24T11:59:05;102389.98;;;22.46;26.17
77778;BME280;66966;-34.746;138.604;2023-04-24T12:01:28;102397.23;;;22.56;26.23
77778;BME280;66966;-34.746;138.604;2023-04-24T12:03:59;102395.61;;;22.61;26.16
77778;BME280;66966;-34.746;138.604;2023-04-24T12:06:19;102403.37;;;22.67;25.98
77778;BME280;66966;-34.746;138.604;2023-04-24T12:08:47;102408.04;;;22.66;25.94
77778;BME280;66966;-34.746;138.604;2023-04-24T12:11:10;102411.09;;;22.44;25.90
77778;BME280;66966;-34.746;138.604;2023-04-24T12:13:35;102417.25;;;22.40;25.87
77778;BME280;66966;-34.746;138.604;2023-04-24T12:16:01;102417.76;;;22.47;26.04
77778;BME280;66966;-34.746;138.604;2023-04-24T12:18:26;102418.79;;;22.33;26.18
77778;BME280;66966;-34.746;138.604;2023-04-24T12:20:51;102419.31;;;22.32;26.28
77778;BME280;66966;-34.746;138.604;2023-04-24T12:23:27;102420.58;;;22.02;26.40
77778;BME280;66966;-34.746;138.604;2023-04-24T12:25:41;102417.46;;;22.02;26.91
77778;BME280;66966;-34.746;138.604;2023-04-24T12:28:13;102410.82;;;21.83;27.07
77778;BME280;66966;-34.746;138.604;2023-04-24T12:30:34;102407.55;;;21.67;27.34
77778;BME280;66966;-34.746;138.604;2023-04-24T12:32:59;102400.88;;;21.77;27.56
77778;BME280;66966;-34.746;138.604;2023-04-24T12:35:25;102400.49;;;21.61;27.60
77778;BME280;66966;-34.746;138.604;2023-04-24T12:37:49;102399.09;;;21.51;27.87
77778;BME280;66966;-34.746;138.604;2023-04-24T12:40:15;102400.58;;;21.53;27.98
77778;BME280;66966;-34.746;138.604;2023-04-24T12:42:44;102402.20;;;21.21;28.37
77778;BME280;66966;-34.746;138.604;2023-04-24T12:45:07;102399.86;;;21.17;28.49
77778;BME280;66966;-34.746;138.604;2023-04-24T12:47:31;102395.40;;;21.35;28.56
77778;BME280;66966;-34.746;138.604;2023-04-24T12:49:55;102397.31;;;21.01;28.70
77778;BME280;66966;-34.746;138.604;2023-04-24T12:52:21;102393.93;;;21.40;28.88
77778;BME280;66966;-34.746;138.604;2023-04-24T12:54:46;102393.85;;;21.34;28.82
77778;BME280;66966;-34.746;138.604;2023-04-24T12:57:11;102396.47;;;21.22;29.14
77778;BME280;66966;-34.746;138.604;2023-04-24T12:59:37;102398.72;;;21.13;29.32
77778;BME280;66966;-34.746;138.604;2023-04-24T13:02:02;102403.61;;;20.96;29.51
77778;BME280;66966;-34.746;138.604;2023-04-24T13:04:27;102404.01;;;20.88;29.64
77778;BME280;66966;-34.746;138.604;2023-04-24T13:06:53;102404.61;;;20.37;30.03
77778;BME280;66966;-34.746;138.604;2023-04-24T13:09:18;102401.26;;;20.78;30.30
77778;BME280;66966;-34.746;138.604;2023-04-24T13:11:44;102394.72;;;20.95;30.29
77778;BME280;66966;-34.746;138.604;2023-04-24T13:14:09;102392.38;;;20.61;30.43
77778;BME280;66966;-34.746;138.604;2023-04-24T13:16:35;102386.28;;;20.70;30.64
77778;BME280;66966;-34.746;138.604;2023-04-24T13:19:00;102387.15;;;20.38;30.88
77778;BME280;66966;-34.746;138.604;2023-04-24T13:21:26;102389.44;;;20.83;30.83
77778;BME280;66966;-34.746;138.604;2023-04-24T13:23:51;102390.24;;;20.70;30.96
77778;BME280;66966;-34.746;138.604;2023-04-24T13:26:16;102392.15;;;20.39;31.04
77778;BME280;66966;-34.746;138.604;2023-04-24T13:28:42;102396.29;;;20.27;31.29